Time;durP1;ratioP1;P1;durP2;ratioP2;P2;SDS_P1;SDS_P2;PMS_P1;PMS_P2;Temp;Humidity;BMP_temperature;BMP_pressure;BME280_temperature;BME280_humidity;BME280_pressure;Samples;Min_cycle;Max_cycle;Signal;HPM_P1;HPM_P2
2023/11/09 00:00:29;;;;;;;4.60;2.00;;;4.70;99.90;;;;;;5086112;28;20202;-75
2023/11/09 00:02:55;;;;;;;3.30;1.40;;;4.70;99.90;;;;;;5089789;28;20242;-75
2023/11/09 00:05:22;;;;;;;2.55;1.70;;;4.70;99.90;;;;;;5090391;28;20195;-74
2023/11/09 00:07:50;;;;;;;2.95;1.63;;;4.80;99.90;;;;;;5090287;28;20210;-75
2023/11/09 00:10:17;;;;;;;5.38;2.53;;;4.80;99.90;;;;;;5090596;28;20214;-75
2023/11/09 00:12:48;;;;;;;1.02;0.93;;;4.90;99.90;;;;;;5090250;28;20211;-75
2023/11/09 00:15:15;;;;;;;2.35;1.60;;;4.90;99.90;;;;;;5089903;28;20219;-75
2023/11/09 00:17:42;;;;;;;1.70;1.60;;;4.90;99.90;;;;;;5089286;28;20203;-76
2023/11/09 00:20:09;;;;;;;3.88;2.22;;;5.00;99.90;;;;;;5090268;28;20192;-74
2023/11/09 00:22:36;;;;;;;1.70;1.60;;;5.10;99.90;;;;;;5090059;28;20218;-74
2023/11/09 00:25:06;;;;;;;1.88;1.33;;;5.00;99.90;;;;;;5089002;28;20559;-75
2023/11/09 00:27:33;;;;;;;2.25;2.05;;;5.00;99.90;;;;;;5089372;28;21021;-75
2023/11/09 00:30:00;;;;;;;1.33;1.23;;;5.00;99.90;;;;;;5089656;28;20203;-75
2023/11/09 00:32:26;;;;;;;2.85;2.45;;;4.90;99.90;;;;;;5090287;28;20199;-75
2023/11/09 00:34:53;;;;;;;2.20;2.00;;;4.80;99.90;;;;;;5089717;28;20227;-75
2023/11/09 00:37:22;;;;;;;1.92;1.60;;;4.70;99.90;;;;;;5089299;28;20286;-75
2023/11/09 00:39:49;;;;;;;1.75;1.65;;;4.70;99.90;;;;;;5089688;28;20683;-75
2023/11/09 00:42:17;;;;;;;2.22;2.03;;;4.60;99.90;;;;;;5089575;28;20195;-75
2023/11/09 00:44:43;;;;;;;1.60;1.50;;;4.70;99.90;;;;;;5089369;28;20295;-75
2023/11/09 00:47:10;;;;;;;1.85;1.60;;;4.70;99.90;;;;;;5089342;28;20203;-75
2023/11/09 00:49:37;;;;;;;2.17;1.38;;;4.60;99.90;;;;;;5089099;28;20640;-75
2023/11/09 00:52:04;;;;;;;1.55;1.45;;;4.70;99.90;;;;;;5089400;28;20207;-75
2023/11/09 00:54:31;;;;;;;3.28;1.88;;;4.60;99.90;;;;;;5089940;28;20221;-76
2023/11/09 00:56:58;;;;;;;2.53;2.03;;;4.70;99.90;;;;;;5088954;28;20203;-75
2023/11/09 00:59:26;;;;;;;2.70;2.30;;;4.70;99.90;;;;;;5089081;28;20203;-75
2023/11/09 01:01:53;;;;;;;1.88;1.73;;;4.80;99.90;;;;;;5089182;28;20298;-75
2023/11/09 01:04:19;;;;;;;1.52;1.42;;;4.80;99.90;;;;;;5089270;28;20403;-74
2023/11/09 01:06:46;;;;;;;2.38;1.75;;;4.80;99.90;;;;;;5089370;28;20564;-74
2023/11/09 01:09:14;;;;;;;2.30;2.10;;;4.80;99.90;;;;;;5088773;28;20208;-74
2023/11/09 01:11:41;;;;;;;1.83;1.73;;;4.80;99.90;;;;;;5088521;28;20281;-74
2023/11/09 01:14:08;;;;;;;1.50;1.40;;;4.80;99.90;;;;;;5088078;28;20230;-74
2023/11/09 01:16:36;;;;;;;2.03;1.83;;;4.80;99.90;;;;;;5089182;28;20214;-74
2023/11/09 01:19:03;;;;;;;1.77;1.67;;;4.70;99.90;;;;;;5088364;28;20203;-74
2023/11/09 01:21:31;;;;;;;1.98;1.80;;;4.70;99.90;;;;;;5088972;28;20296;-74
2023/11/09 01:23:58;;;;;;;1.90;1.65;;;4.80;99.90;;;;;;5079446;28;20203;-75
2023/11/09 01:26:25;;;;;;;2.47;2.28;;;4.80;99.90;;;;;;5088543;28;20206;-74
2023/11/09 01:28:51;;;;;;;1.65;1.55;;;4.90;99.90;;;;;;5088423;28;20206;-74
2023/11/09 01:31:19;;;;;;;1.42;1.33;;;4.80;99.90;;;;;;5088922;28;20195;-75
2023/11/09 01:33:47;;;;;;;1.60;1.50;;;4.90;99.90;;;;;;5088652;28;20191;-74
2023/11/09 01:36:15;;;;;;;2.00;1.90;;;4.90;99.90;;;;;;5088489;28;20225;-74
2023/11/09 01:38:42;;;;;;;2.25;1.40;;;5.10;99.90;;;;;;5087771;28;20248;-74
2023/11/09 01:41:09;;;;;;;3.15;2.22;;;4.90;99.90;;;;;;5088636;28;20195;-75
2023/11/09 01:43:36;;;;;;;2.05;1.77;;;5.00;99.90;;;;;;5088538;28;20194;-75
2023/11/09 01:46:04;;;;;;;1.80;1.70;;;5.00;99.90;;;;;;5088321;28;20659;-75
2023/11/09 01:48:34;;;;;;;1.83;1.73;;;4.90;99.90;;;;;;5087841;28;20218;-75
2023/11/09 01:51:03;;;;;;;1.30;1.23;;;4.90;99.90;;;;;;5088334;28;20590;-75
2023/11/09 01:53:30;;;;;;;1.65;1.55;;;4.90;99.90;;;;;;5079871;28;20199;-75
2023/11/09 01:55:58;;;;;;;2.55;2.35;;;5.00;99.90;;;;;;5088222;28;20230;-75
2023/11/09 01:58:26;;;;;;;3.13;1.55;;;5.00;99.90;;;;;;5087624;28;20206;-75
2023/11/09 02:00:54;;;;;;;1.40;1.27;;;4.90;99.90;;;;;;5088220;28;20409;-75
2023/11/09 02:03:21;;;;;;;1.33;1.30;;;4.70;99.90;;;;;;5087291;28;20205;-74
2023/11/09 02:05:49;;;;;;;1.67;1.58;;;4.60;99.90;;;;;;5087353;28;20203;-74
2023/11/09 02:08:18;;;;;;;2.45;2.25;;;4.70;99.90;;;;;;5087414;28;20195;-74
2023/11/09 02:10:46;;;;;;;2.95;1.73;;;4.80;99.90;;;;;;5079793;28;20211;-75
2023/11/09 02:13:13;;;;;;;2.45;2.05;;;4.80;99.90;;;;;;5087908;28;20290;-74
2023/11/09 02:15:41;;;;;;;2.85;1.60;;;4.70;99.90;;;;;;5087775;28;20580;-75
2023/11/09 02:18:08;;;;;;;2.25;1.73;;;4.80;99.90;;;;;;5087098;28;20195;-75
2023/11/09 02:20:37;;;;;;;2.67;2.47;;;4.80;99.90;;;;;;5087335;28;20306;-75
2023/11/09 02:23:08;;;;;;;2.05;1.85;;;4.90;99.90;;;;;;5087977;28;20608;-75
2023/11/09 02:25:40;;;;;;;2.38;1.75;;;4.90;99.90;;;;;;5086736;28;20199;-75
2023/11/09 02:28:09;;;;;;;1.60;1.50;;;4.80;99.90;;;;;;5087191;28;20281;-75
2023/11/09 02:30:36;;;;;;;1.42;1.33;;;4.90;99.90;;;;;;5087505;28;20201;-75
2023/11/09 02:33:04;;;;;;;1.70;1.60;;;4.70;99.90;;;;;;5087489;28;20253;-75
2023/11/09 02:35:33;;;;;;;1.90;1.33;;;4.90;99.90;;;;;;5087750;28;20226;-75
2023/11/09 02:38:00;;;;;;;1.48;1.33;;;4.80;99.90;;;;;;5087055;28;20210;-75
2023/11/09 02:40:28;;;;;;;3.45;1.17;;;4.70;99.90;;;;;;5087437;28;20195;-74
2023/11/09 02:42:58;;;;;;;1.65;1.55;;;4.90;99.90;;;;;;5087078;28;20199;-75
2023/11/09 02:45:26;;;;;;;1.35;1.25;;;5.00;99.80;;;;;;5086733;28;20199;-75
2023/11/09 02:47:55;;;;;;;0.90;0.88;;;5.10;99.90;;;;;;5086855;28;20245;-75
2023/11/09 02:50:23;;;;;;;3.53;1.98;;;4.90;99.70;;;;;;5087187;28;20223;-75
2023/11/09 02:52:50;;;;;;;1.35;1.08;;;5.00;99.90;;;;;;5087302;28;20199;-75
2023/11/09 02:55:18;;;;;;;7.85;2.03;;;4.90;99.50;;;;;;5086977;28;20297;-74
2023/11/09 02:57:45;;;;;;;1.92;1.35;;;4.80;99.70;;;;;;5086922;28;20199;-74
2023/11/09 03:00:14;;;;;;;1.55;1.45;;;4.60;99.90;;;;;;5087247;28;20233;-75
2023/11/09 03:02:41;;;;;;;1.65;1.55;;;4.60;99.90;;;;;;5087303;28;20191;-75
2023/11/09 03:05:08;;;;;;;1.45;1.08;;;4.80;99.90;;;;;;5086967;28;20213;-75
2023/11/09 03:07:35;;;;;;;1.70;1.50;;;4.70;99.90;;;;;;5086485;28;20205;-75
2023/11/09 03:10:03;;;;;;;1.02;0.93;;;4.80;99.90;;;;;;5087120;28;20668;-75
2023/11/09 03:12:30;;;;;;;1.75;1.35;;;4.70;99.90;;;;;;5086151;28;20198;-75
2023/11/09 03:14:58;;;;;;;1.35;1.27;;;4.70;99.90;;;;;;5086859;28;20607;-75
2023/11/09 03:17:27;;;;;;;1.60;1.50;;;4.60;99.90;;;;;;5086374;28;20191;-74
2023/11/09 03:19:57;;;;;;;2.33;2.05;;;4.70;99.90;;;;;;5085326;28;20240;-74
2023/11/09 03:22:26;;;;;;;1.45;1.30;;;4.70;99.90;;;;;;5086786;28;20201;-74
2023/11/09 03:24:53;;;;;;;1.13;1.02;;;4.90;99.70;;;;;;5086188;28;20298;-75
2023/11/09 03:27:21;;;;;;;1.25;1.15;;;4.80;99.50;;;;;;5086243;28;20278;-75
2023/11/09 03:29:48;;;;;;;1.30;1.20;;;4.80;99.40;;;;;;5084933;28;20207;-75
2023/11/09 03:32:16;;;;;;;1.40;1.25;;;4.70;99.50;;;;;;5086721;28;20280;-75
2023/11/09 03:34:45;;;;;;;1.02;1.02;;;4.60;99.80;;;;;;5086719;28;20196;-75
2023/11/09 03:37:14;;;;;;;1.85;1.55;;;4.50;99.90;;;;;;5083999;28;20222;-75
2023/11/09 03:39:41;;;;;;;0.90;0.90;;;4.50;99.90;;;;;;5093264;28;20199;-74
2023/11/09 03:42:11;;;;;;;0.68;0.68;;;4.40;99.90;;;;;;5093710;28;20198;-75
2023/11/09 03:44:40;;;;;;;1.30;1.20;;;4.40;99.90;;;;;;5093292;28;20201;-74
2023/11/09 03:47:08;;;;;;;0.93;0.82;;;4.40;99.90;;;;;;5093382;28;20203;-75
2023/11/09 03:49:40;;;;;;;1.67;1.13;;;4.40;99.90;;;;;;5086311;28;20633;-74
2023/11/09 03:52:09;;;;;;;1.30;1.25;;;4.40;99.90;;;;;;5091163;28;20213;-75
2023/11/09 03:54:36;;;;;;;2.22;1.90;;;4.30;99.90;;;;;;5093449;28;20194;-75
2023/11/09 03:57:04;;;;;;;1.20;1.00;;;4.30;99.90;;;;;;5093445;28;20564;-75
2023/11/09 03:59:31;;;;;;;1.27;1.15;;;4.40;99.90;;;;;;5092466;28;20187;-75
2023/11/09 04:01:58;;;;;;;2.20;1.75;;;4.40;99.90;;;;;;5092206;28;20201;-75
2023/11/09 04:04:24;;;;;;;1.40;1.30;;;4.40;99.90;;;;;;5092208;28;20685;-74
2023/11/09 04:06:51;;;;;;;1.30;1.20;;;4.50;99.90;;;;;;5091621;28;20217;-74
2023/11/09 04:09:19;;;;;;;1.15;1.02;;;4.40;99.90;;;;;;5091851;28;20201;-74
2023/11/09 04:11:47;;;;;;;1.02;1.02;;;4.30;99.90;;;;;;5091345;28;20194;-75
2023/11/09 04:14:14;;;;;;;1.60;1.50;;;4.30;99.90;;;;;;5092178;28;20207;-75
2023/11/09 04:16:40;;;;;;;0.90;0.90;;;4.30;99.90;;;;;;5092082;28;20309;-75
2023/11/09 04:19:08;;;;;;;1.30;1.20;;;4.30;99.90;;;;;;5091879;28;20222;-74
2023/11/09 04:21:35;;;;;;;1.50;1.40;;;4.20;99.90;;;;;;5092985;28;20652;-74
2023/11/09 04:24:02;;;;;;;1.23;0.98;;;4.20;99.90;;;;;;5092219;28;20199;-74
2023/11/09 04:26:32;;;;;;;1.33;1.23;;;4.30;99.90;;;;;;5092575;28;20301;-74
2023/11/09 04:29:00;;;;;;;0.88;0.88;;;4.30;99.90;;;;;;5092356;28;20199;-75
2023/11/09 04:31:28;;;;;;;1.05;0.95;;;4.50;99.90;;;;;;5092804;28;20218;-74
2023/11/09 04:33:58;;;;;;;1.30;1.20;;;4.40;99.90;;;;;;5092881;28;20208;-74
2023/11/09 04:36:26;;;;;;;1.42;1.30;;;4.50;99.90;;;;;;5092889;28;20699;-74
2023/11/09 04:38:53;;;;;;;1.80;1.70;;;4.50;99.90;;;;;;5092648;28;20715;-73
2023/11/09 04:41:21;;;;;;;1.23;1.10;;;4.50;99.90;;;;;;5092792;28;20198;-74
2023/11/09 04:43:51;;;;;;;1.73;1.63;;;4.60;99.90;;;;;;5092572;28;20665;-74
2023/11/09 04:46:19;;;;;;;2.42;1.40;;;4.50;99.90;;;;;;5092634;28;20214;-74
2023/11/09 04:48:47;;;;;;;1.90;1.20;;;4.60;99.90;;;;;;5088026;28;20210;-74
2023/11/09 04:51:20;;;;;;;1.92;1.60;;;4.60;99.90;;;;;;5089935;28;20203;-75
2023/11/09 04:53:51;;;;;;;1.45;1.35;;;4.60;99.90;;;;;;5089427;28;20258;-74
2023/11/09 04:56:32;;;;;;;1.73;1.50;;;4.60;99.90;;;;;;5081188;28;20242;-74
2023/11/09 04:59:02;;;;;;;1.55;1.45;;;4.60;99.90;;;;;;5088302;28;20280;-73
2023/11/09 05:07:01;;;;;;;2.60;1.75;;;4.70;99.90;;;;;;5078826;28;20214;-74
2023/11/09 05:09:28;;;;;;;1.60;1.38;;;4.70;99.90;;;;;;5089093;28;20274;-74
2023/11/09 05:11:55;;;;;;;1.73;1.60;;;4.70;99.90;;;;;;5089258;28;20224;-74
2023/11/09 05:14:23;;;;;;;2.95;1.88;;;4.70;99.90;;;;;;5088829;28;20206;-74
2023/11/09 05:16:50;;;;;;;2.47;2.22;;;4.70;99.90;;;;;;5083137;28;20618;-75
2023/11/09 05:19:17;;;;;;;2.08;1.48;;;4.80;99.90;;;;;;5088294;28;20559;-74
2023/11/09 05:21:44;;;;;;;1.40;1.20;;;4.80;99.90;;;;;;5088510;28;20605;-75
2023/11/09 05:24:11;;;;;;;1.70;1.42;;;4.70;99.90;;;;;;5087949;28;20584;-74
2023/11/09 05:26:38;;;;;;;1.60;1.50;;;4.70;99.90;;;;;;5088792;28;20708;-74
2023/11/09 05:29:06;;;;;;;2.45;2.25;;;4.80;99.90;;;;;;5088668;28;20207;-74
2023/11/09 05:31:35;;;;;;;2.45;2.08;;;4.70;99.90;;;;;;5088821;28;20550;-74
2023/11/09 05:34:03;;;;;;;2.55;1.80;;;4.70;99.90;;;;;;5088605;28;20218;-74
2023/11/09 05:36:33;;;;;;;2.55;1.98;;;4.70;99.90;;;;;;5088626;28;20219;-74
2023/11/09 05:39:01;;;;;;;4.18;2.00;;;4.70;99.90;;;;;;5088321;28;20199;-74
2023/11/09 05:41:29;;;;;;;1.65;1.55;;;4.70;99.90;;;;;;5088494;28;20195;-74
2023/11/09 05:43:56;;;;;;;1.83;1.42;;;4.70;99.90;;;;;;5088269;28;20664;-74
2023/11/09 05:46:23;;;;;;;2.50;1.95;;;4.60;99.90;;;;;;5088593;28;20479;-75
2023/11/09 05:48:51;;;;;;;1.85;1.75;;;4.60;99.90;;;;;;5086999;28;20547;-74
2023/11/09 05:51:21;;;;;;;1.60;1.50;;;4.60;99.90;;;;;;5088623;28;20649;-74
2023/11/09 05:53:48;;;;;;;2.13;1.60;;;4.70;99.90;;;;;;5088206;28;20620;-74
2023/11/09 05:56:15;;;;;;;2.42;2.22;;;4.60;99.90;;;;;;5088187;28;20203;-75
2023/11/09 05:58:42;;;;;;;2.50;1.73;;;4.60;99.90;;;;;;5087296;28;20199;-75
2023/11/09 06:01:10;;;;;;;2.35;2.15;;;4.60;99.90;;;;;;5087657;28;20207;-75
2023/11/09 06:03:37;;;;;;;2.00;1.90;;;4.60;99.90;;;;;;5088304;28;20559;-75
2023/11/09 06:06:06;;;;;;;2.47;2.28;;;4.60;99.90;;;;;;5088079;28;20199;-74
2023/11/09 06:08:34;;;;;;;3.63;2.00;;;4.60;99.90;;;;;;5087759;28;20198;-75
2023/11/09 06:11:01;;;;;;;4.10;2.00;;;4.60;99.90;;;;;;5088021;28;20311;-74
2023/11/09 06:13:28;;;;;;;2.13;2.03;;;4.60;99.90;;;;;;5087618;28;20286;-74
2023/11/09 06:15:55;;;;;;;2.65;2.28;;;4.60;99.90;;;;;;5087063;28;20227;-74
2023/11/09 06:18:23;;;;;;;3.45;2.55;;;4.70;99.90;;;;;;5087155;28;20585;-75
2023/11/09 06:20:52;;;;;;;2.78;2.35;;;4.80;99.90;;;;;;5087905;28;20734;-75
2023/11/09 06:23:22;;;;;;;2.72;2.45;;;4.70;99.90;;;;;;5087837;28;20290;-74
2023/11/09 06:25:51;;;;;;;2.00;1.90;;;4.90;99.90;;;;;;5087330;28;20202;-75
2023/11/09 06:28:18;;;;;;;8.18;3.20;;;4.70;99.90;;;;;;5086560;28;20207;-74
2023/11/09 06:30:45;;;;;;;4.28;2.38;;;4.70;99.90;;;;;;5087532;28;20195;-75
2023/11/09 06:33:11;;;;;;;2.70;2.50;;;4.70;99.90;;;;;;5087859;28;20207;-74
2023/11/09 06:35:39;;;;;;;2.28;1.98;;;4.80;99.90;;;;;;5087441;28;20203;-74
2023/11/09 06:38:06;;;;;;;1.50;1.40;;;4.80;99.90;;;;;;5087142;28;20664;-74
2023/11/09 06:40:34;;;;;;;2.45;2.20;;;4.90;99.90;;;;;;5087417;28;20324;-75
2023/11/09 06:43:01;;;;;;;2.80;2.60;;;4.90;99.90;;;;;;5078759;28;20231;-74
2023/11/09 06:45:28;;;;;;;2.53;2.33;;;4.80;99.90;;;;;;5087270;28;20227;-74
2023/11/09 06:47:54;;;;;;;3.17;2.13;;;4.80;99.90;;;;;;5086833;28;20519;-74
2023/11/09 06:50:21;;;;;;;2.10;1.85;;;4.70;99.90;;;;;;5087262;28;20231;-74
2023/11/09 06:52:50;;;;;;;2.90;2.20;;;4.80;99.90;;;;;;5087323;28;20199;-74
2023/11/09 06:55:17;;;;;;;2.97;2.78;;;4.80;99.90;;;;;;5086705;28;20251;-74
2023/11/09 06:57:46;;;;;;;3.15;2.45;;;4.80;99.90;;;;;;5086253;28;20253;-75
2023/11/09 07:00:14;;;;;;;3.78;3.10;;;4.90;99.90;;;;;;5086996;28;20208;-74
2023/11/09 07:02:43;;;;;;;2.97;2.80;;;4.90;99.90;;;;;;5087048;28;20195;-75
2023/11/09 07:05:11;;;;;;;2.92;2.67;;;5.00;99.90;;;;;;5087294;28;20214;-75
2023/11/09 07:07:39;;;;;;;3.00;2.60;;;5.00;99.90;;;;;;5086617;28;20209;-74
2023/11/09 07:10:07;;;;;;;3.65;2.45;;;5.10;99.90;;;;;;5085862;28;20199;-75
2023/11/09 07:12:34;;;;;;;2.83;2.35;;;5.20;99.90;;;;;;5086577;28;20289;-75
2023/11/09 07:15:02;;;;;;;3.35;2.60;;;5.20;99.90;;;;;;5086644;28;20678;-75
2023/11/09 07:17:29;;;;;;;3.15;2.60;;;5.20;99.90;;;;;;5086046;28;20706;-75
2023/11/09 07:19:58;;;;;;;2.60;2.38;;;5.30;99.90;;;;;;5086940;28;20195;-75
2023/11/09 07:22:25;;;;;;;2.30;2.15;;;5.40;99.90;;;;;;5086397;28;20195;-75
2023/11/09 07:24:53;;;;;;;3.58;2.75;;;5.50;99.90;;;;;;5086050;28;20277;-74
2023/11/09 07:27:20;;;;;;;2.97;1.90;;;5.50;99.90;;;;;;5086206;28;20203;-74
2023/11/09 07:29:47;;;;;;;2.30;2.20;;;5.60;99.90;;;;;;5078719;28;20198;-74
2023/11/09 07:32:15;;;;;;;1.52;1.42;;;5.70;99.90;;;;;;5086904;28;20210;-74
2023/11/09 07:34:42;;;;;;;2.30;2.08;;;5.80;99.90;;;;;;5086582;28;20195;-74
2023/11/09 07:37:11;;;;;;;1.65;1.55;;;5.90;99.90;;;;;;5086039;28;20423;-75
2023/11/09 07:39:38;;;;;;;1.63;1.50;;;6.00;99.20;;;;;;5086136;28;20279;-74
2023/11/09 07:42:06;;;;;;;5.15;1.00;;;6.30;98.10;;;;;;5086695;28;20199;-75
2023/11/09 07:44:33;;;;;;;0.90;0.90;;;6.50;97.70;;;;;;5086818;28;20559;-75
2023/11/09 07:47:02;;;;;;;1.15;1.05;;;6.70;97.60;;;;;;5086388;28;20203;-75
2023/11/09 07:49:30;;;;;;;1.30;0.75;;;6.80;97.60;;;;;;5085388;28;20199;-75
2023/11/09 07:51:58;;;;;;;0.95;0.95;;;6.90;98.30;;;;;;5086283;28;20628;-75
2023/11/09 07:54:25;;;;;;;2.08;1.25;;;6.90;98.20;;;;;;5086695;28;20191;-75
2023/11/09 07:56:52;;;;;;;1.52;1.40;;;7.00;98.10;;;;;;5086333;28;20235;-74
2023/11/09 07:59:19;;;;;;;1.10;1.10;;;7.10;98.80;;;;;;5085875;28;20208;-74
2023/11/09 08:01:45;;;;;;;1.50;1.40;;;7.20;98.90;;;;;;5086389;28;20286;-75
2023/11/09 08:04:12;;;;;;;1.83;1.30;;;7.10;98.90;;;;;;5085859;28;20199;-75
2023/11/09 08:06:42;;;;;;;1.40;1.30;;;7.10;99.30;;;;;;5086505;28;20293;-75
2023/11/09 08:09:12;;;;;;;1.42;1.33;;;7.10;99.60;;;;;;5085820;28;20693;-75
2023/11/09 08:11:42;;;;;;;2.22;1.85;;;7.10;99.30;;;;;;5086339;28;20699;-75
2023/11/09 08:14:08;;;;;;;2.75;1.48;;;7.20;98.80;;;;;;5085993;28;20289;-75
2023/11/09 08:16:35;;;;;;;2.00;1.90;;;7.20;98.80;;;;;;5085546;28;20222;-75
2023/11/09 08:19:03;;;;;;;1.83;1.65;;;7.20;98.50;;;;;;5085915;28;20201;-75
2023/11/09 08:21:32;;;;;;;3.28;1.50;;;7.30;98.30;;;;;;5086554;28;20641;-75
2023/11/09 08:24:00;;;;;;;1.52;1.42;;;7.30;98.40;;;;;;5090129;28;20199;-75
2023/11/09 08:26:27;;;;;;;1.50;1.40;;;7.30;98.10;;;;;;5089742;28;20244;-75
2023/11/09 08:28:54;;;;;;;2.67;1.92;;;7.40;97.90;;;;;;5089481;28;20281;-75
2023/11/09 08:31:21;;;;;;;1.50;1.40;;;7.40;98.10;;;;;;5089838;28;20540;-75
2023/11/09 08:33:49;;;;;;;3.27;2.07;;;7.40;98.30;;;;;;5090111;28;20214;-75
2023/11/09 08:36:16;;;;;;;2.45;1.80;;;7.40;98.20;;;;;;5090003;28;20723;-75
2023/11/09 08:38:43;;;;;;;2.80;1.60;;;7.40;98.00;;;;;;5089249;28;20666;-75
2023/11/09 08:41:11;;;;;;;2.58;1.83;;;7.50;97.90;;;;;;5090011;28;20237;-75
2023/11/09 08:43:39;;;;;;;1.92;1.50;;;7.50;98.20;;;;;;5089027;28;20203;-75
2023/11/09 08:46:06;;;;;;;1.67;1.43;;;7.60;97.80;;;;;;5089370;28;20195;-75
2023/11/09 08:48:35;;;;;;;2.17;1.60;;;7.70;97.90;;;;;;5088706;28;20714;-75
2023/11/09 08:51:02;;;;;;;1.90;1.70;;;7.70;97.00;;;;;;5089264;28;21229;-75
2023/11/09 08:53:31;;;;;;;1.92;1.83;;;7.90;96.60;;;;;;5089837;28;21219;-75
2023/11/09 08:55:58;;;;;;;1.10;1.00;;;7.90;96.60;;;;;;5089358;28;20203;-75
2023/11/09 08:58:26;;;;;;;1.57;1.47;;;8.10;96.30;;;;;;5088335;28;20665;-74
2023/11/09 09:00:53;;;;;;;3.10;1.70;;;8.10;96.60;;;;;;5089367;28;21249;-74
2023/11/09 09:03:21;;;;;;;1.93;1.40;;;8.10;96.50;;;;;;5081116;28;20729;-74
2023/11/09 09:05:47;;;;;;;2.07;1.50;;;8.10;96.60;;;;;;5089521;28;20617;-74
2023/11/09 09:08:14;;;;;;;2.20;1.33;;;8.20;96.60;;;;;;5088873;28;20639;-75
2023/11/09 09:10:41;;;;;;;1.87;1.20;;;8.20;96.40;;;;;;5088968;28;21053;-75
2023/11/09 09:13:08;;;;;;;1.10;1.10;;;8.20;96.30;;;;;;5088456;28;20650;-74
2023/11/09 09:15:37;;;;;;;2.40;1.60;;;8.20;96.50;;;;;;5089285;28;20648;-74
2023/11/09 09:18:09;;;;;;;3.30;2.10;;;8.20;95.70;;;;;;5088438;28;20680;-74
2023/11/09 09:20:37;;;;;;;3.27;2.10;;;8.30;95.80;;;;;;5080744;28;20975;-75
2023/11/09 09:23:05;;;;;;;1.47;1.30;;;8.30;95.90;;;;;;5089017;28;21082;-75
2023/11/09 09:25:31;;;;;;;2.47;1.77;;;8.30;96.40;;;;;;5088300;28;20951;-75
2023/11/09 09:27:59;;;;;;;1.40;1.30;;;8.30;96.30;;;;;;5088551;28;20629;-75
2023/11/09 09:30:26;;;;;;;1.80;1.10;;;8.40;96.10;;;;;;5089133;28;21243;-75
2023/11/09 09:32:55;;;;;;;1.63;1.53;;;8.40;95.90;;;;;;5088713;28;20668;-74
2023/11/09 09:35:23;;;;;;;1.10;1.00;;;8.40;95.70;;;;;;5087877;28;20620;-75
2023/11/09 09:37:51;;;;;;;1.10;0.80;;;8.50;96.10;;;;;;5087475;28;21251;-75
2023/11/09 09:40:20;;;;;;;1.60;1.10;;;8.50;95.90;;;;;;5088600;28;20621;-75
2023/11/09 09:42:49;;;;;;;0.97;0.93;;;8.60;95.80;;;;;;5088931;28;20625;-75
2023/11/09 09:45:18;;;;;;;1.30;1.20;;;8.70;95.70;;;;;;5088322;28;20637;-76
2023/11/09 09:47:46;;;;;;;1.07;0.90;;;8.80;95.50;;;;;;5087832;28;20673;-76
2023/11/09 09:50:14;;;;;;;1.50;1.33;;;8.80;95.20;;;;;;5088346;28;20616;-76
2023/11/09 09:52:46;;;;;;;1.50;0.90;;;8.80;95.40;;;;;;5088259;28;20625;-76
2023/11/09 09:55:15;;;;;;;0.90;0.90;;;8.90;95.20;;;;;;5080317;28;20620;-75
2023/11/09 09:57:42;;;;;;;1.40;1.03;;;9.00;95.30;;;;;;5087418;28;20667;-76
2023/11/09 10:00:13;;;;;;;1.20;1.10;;;9.20;95.10;;;;;;5088087;28;20718;-76
2023/11/09 10:02:41;;;;;;;1.37;1.27;;;9.10;95.50;;;;;;5088146;28;20668;-76
2023/11/09 10:05:12;;;;;;;1.40;1.07;;;9.10;95.40;;;;;;5087712;28;20617;-76
2023/11/09 10:07:59;;;;;;;1.43;1.30;;;9.20;95.20;;;;;;5087842;28;20621;-76
2023/11/09 10:10:28;;;;;;;1.07;0.90;;;9.20;95.00;;;;;;5088206;28;20614;-76
2023/11/09 10:12:55;;;;;;;0.90;0.90;;;9.20;95.10;;;;;;5087931;28;20871;-75
2023/11/09 10:15:24;;;;;;;0.80;0.73;;;9.30;95.40;;;;;;5086851;28;20633;-76
2023/11/09 10:17:52;;;;;;;1.00;0.80;;;9.30;95.20;;;;;;5087354;28;20714;-76
2023/11/09 10:20:20;;;;;;;1.70;1.20;;;9.30;95.30;;;;;;5087865;28;20631;-75
2023/11/09 10:22:47;;;;;;;0.80;0.80;;;9.40;95.70;;;;;;5087958;28;20653;-75
2023/11/09 10:25:17;;;;;;;0.90;0.70;;;9.60;95.30;;;;;;5087641;28;20720;-76
2023/11/09 10:27:47;;;;;;;1.27;0.70;;;9.60;95.40;;;;;;5087293;28;20633;-76
2023/11/09 10:30:16;;;;;;;0.93;0.60;;;9.70;95.60;;;;;;5087604;28;20721;-76
2023/11/09 10:32:43;;;;;;;0.90;0.70;;;9.70;95.50;;;;;;5087560;28;20621;-76
2023/11/09 10:35:11;;;;;;;0.40;0.40;;;9.70;95.50;;;;;;5087408;28;21192;-75
2023/11/09 10:37:40;;;;;;;1.10;1.00;;;9.80;95.60;;;;;;5087267;28;20654;-76
2023/11/09 10:40:12;;;;;;;0.63;0.60;;;9.70;96.00;;;;;;5087507;28;20851;-76
2023/11/09 10:42:41;;;;;;;0.63;0.63;;;9.80;95.80;;;;;;5087445;28;21189;-75
2023/11/09 10:45:10;;;;;;;0.73;0.57;;;9.80;96.00;;;;;;5086712;28;20622;-76
2023/11/09 10:47:40;;;;;;;0.60;0.60;;;9.90;96.00;;;;;;5086351;28;20625;-75
2023/11/09 10:50:14;;;;;;;1.90;0.80;;;9.90;96.40;;;;;;5079333;28;20630;-75
2023/11/09 10:52:43;;;;;;;0.70;0.70;;;10.10;95.30;;;;;;5087407;28;20708;-75
2023/11/09 10:55:12;;;;;;;1.03;0.93;;;10.20;95.20;;;;;;5086648;28;20618;-75
2023/11/09 10:57:43;;;;;;;0.83;0.73;;;10.20;95.40;;;;;;5086958;28;21252;-75
2023/11/09 11:00:11;;;;;;;2.30;0.50;;;10.20;95.30;;;;;;5087389;28;20625;-75
2023/11/09 11:02:48;;;;;;;0.63;0.63;;;10.20;95.40;;;;;;5086969;28;20630;-75
2023/11/09 11:05:22;;;;;;;0.60;0.60;;;10.30;95.20;;;;;;5086805;28;21125;-75
2023/11/09 11:07:50;;;;;;;1.00;0.73;;;10.30;95.20;;;;;;5086646;28;21018;-75
2023/11/09 11:10:20;;;;;;;0.90;0.80;;;10.40;95.00;;;;;;5087199;28;20653;-75
2023/11/09 11:12:50;;;;;;;0.90;0.80;;;10.50;95.40;;;;;;5087173;28;20690;-75
2023/11/09 11:15:21;;;;;;;0.60;0.60;;;10.50;95.70;;;;;;5086841;28;20655;-75
2023/11/09 11:17:59;;;;;;;0.70;0.70;;;10.80;95.00;;;;;;5085914;28;20653;-75
2023/11/09 11:20:51;;;;;;;1.20;0.60;;;11.00;94.90;;;;;;5086800;28;20728;-75
2023/11/09 11:24:00;;;;;;;0.80;0.80;;;11.00;95.10;;;;;;5086923;28;20625;-74
2023/11/09 11:26:30;;;;;;;0.63;0.63;;;11.00;94.50;;;;;;5086581;28;20654;-75
2023/11/09 11:29:00;;;;;;;0.77;0.77;;;11.00;94.70;;;;;;5086430;28;20640;-75
2023/11/09 11:31:26;;;;;;;0.97;0.90;;;10.90;95.20;;;;;;5086719;28;20632;-75
2023/11/09 11:33:53;;;;;;;1.20;0.87;;;10.90;95.20;;;;;;5086563;28;20631;-75
2023/11/09 11:36:26;;;;;;;0.80;0.70;;;11.00;95.00;;;;;;5086464;28;20652;-75
2023/11/09 11:39:24;;;;;;;0.70;0.70;;;11.10;94.70;;;;;;5086090;28;20733;-75
2023/11/09 11:41:52;;;;;;;1.67;0.63;;;11.10;94.70;;;;;;5086777;28;20616;-75
2023/11/09 11:44:23;;;;;;;1.23;1.07;;;11.00;95.30;;;;;;5086705;28;21177;-75
2023/11/09 11:46:50;;;;;;;0.53;0.53;;;11.10;95.20;;;;;;5086550;28;21126;-75
2023/11/09 11:49:17;;;;;;;0.80;0.80;;;11.10;95.10;;;;;;5085053;28;20716;-75
2023/11/09 11:51:48;;;;;;;1.23;0.83;;;11.10;95.10;;;;;;5086882;28;20720;-74
2023/11/09 11:54:15;;;;;;;0.60;0.50;;;11.20;94.80;;;;;;5079101;28;20706;-74
2023/11/09 11:56:43;;;;;;;0.67;0.67;;;11.20;94.80;;;;;;5086914;28;20637;-75
2023/11/09 11:59:10;;;;;;;1.10;1.00;;;11.20;94.60;;;;;;5089889;28;20664;-74
2023/11/09 12:01:42;;;;;;;2.80;0.70;;;11.10;95.10;;;;;;5089924;28;20624;-75
2023/11/09 12:04:14;;;;;;;0.60;0.60;;;11.20;95.40;;;;;;5090407;28;20626;-74
2023/11/09 12:06:44;;;;;;;1.00;0.83;;;11.30;95.30;;;;;;5090554;28;20623;-74
2023/11/09 12:09:15;;;;;;;0.80;0.80;;;11.30;94.90;;;;;;5090249;28;20631;-75
2023/11/09 12:11:43;;;;;;;0.70;0.70;;;11.50;94.60;;;;;;5090689;28;20698;-74
2023/11/09 12:14:11;;;;;;;0.50;0.50;;;11.40;94.90;;;;;;5089356;28;21126;-75
2023/11/09 12:16:40;;;;;;;0.57;0.47;;;11.50;94.70;;;;;;5090152;28;20621;-75
2023/11/09 12:19:11;;;;;;;0.50;0.40;;;11.40;94.90;;;;;;5089223;28;20679;-75
2023/11/09 12:21:38;;;;;;;0.93;0.50;;;11.60;94.50;;;;;;5081795;28;20628;-74
2023/11/09 12:24:09;;;;;;;0.40;0.30;;;11.70;93.90;;;;;;5090213;28;20639;-75
2023/11/09 12:26:36;;;;;;;0.50;0.40;;;11.60;94.20;;;;;;5089547;28;20628;-75
2023/11/09 12:29:04;;;;;;;0.60;0.40;;;11.60;94.30;;;;;;5089676;28;20621;-75
2023/11/09 12:31:31;;;;;;;0.57;0.33;;;11.60;94.10;;;;;;5090038;28;20625;-75
2023/11/09 12:34:04;;;;;;;0.83;0.47;;;11.60;94.40;;;;;;5089680;28;20616;-75
2023/11/09 12:36:33;;;;;;;0.90;0.53;;;11.70;94.30;;;;;;5089883;28;20633;-75
2023/11/09 12:39:01;;;;;;;0.57;0.40;;;11.70;93.80;;;;;;5089519;28;20663;-75
2023/11/09 12:41:32;;;;;;;0.43;0.40;;;11.70;93.50;;;;;;5089682;28;20624;-75
2023/11/09 12:43:59;;;;;;;1.23;0.47;;;11.80;93.70;;;;;;5089751;28;20622;-76
2023/11/09 12:46:26;;;;;;;1.10;0.60;;;11.80;93.60;;;;;;5089609;28;20614;-75
2023/11/09 12:48:59;;;;;;;1.37;1.20;;;11.80;93.50;;;;;;5088741;28;21024;-74
2023/11/09 12:51:28;;;;;;;0.50;0.50;;;11.90;93.80;;;;;;5089510;28;21038;-74
2023/11/09 12:53:56;;;;;;;0.57;0.30;;;11.80;93.50;;;;;;5088958;28;21016;-75
2023/11/09 12:56:23;;;;;;;0.30;0.30;;;11.70;93.30;;;;;;5089670;28;20633;-75
2023/11/09 12:58:52;;;;;;;0.30;0.30;;;11.80;93.70;;;;;;5088948;28;20660;-75
2023/11/09 13:01:19;;;;;;;0.40;0.33;;;11.80;93.70;;;;;;5081595;28;21193;-75
2023/11/09 13:03:48;;;;;;;0.50;0.47;;;11.80;94.20;;;;;;5089141;28;20632;-75
2023/11/09 13:06:22;;;;;;;0.70;0.43;;;11.80;94.40;;;;;;5088522;28;21227;-75